Airfield :
LOGIN :

Register | Disclaimer

   EN    FR    IT 

 










Legend :    VFR   Marginal VFR   IFR   Intensive IFR   Very Intensive IFR
Visi :
Ceiling :
>= 8 km
>= 3000ft
5 to 8 km
1000 to 3000 ft
1500m to 5 km
500 to 1000 ft
800 to 1500m
200 to 500 ft
< 800m
< 200 ft
Symbols :   Thunderstorms  Fog  Heavy snow  Heavy precipitations  Wind > 20 kt
SIGMETs :     Misc.  Thunderstorms  Icing  Turbulence  Mountain Waves  Volcanic Ashes







- Airport Elevation : 12 ft
- IATA code : BCN


LEBL - Barcelone

CURRENT METAR :
  • 272300Z 06009KT 9999 FEW025 BKN040 20/16 Q1012 NOSIG

EXPIRED METARs :
  • 272230Z 07011KT 9999 FEW025 BKN050 20/16 Q1013 NOSIG
  • 272200Z 07008KT 9999 FEW030 BKN050 20/15 Q1013 NOSIG
  • 272130Z 09008KT 060V120 9999 FEW030 SCT050 20/16 Q1013 NOSIG
  • 272100Z 07007KT 9999 FEW030 20/16 Q1012 NOSIG
  • 272030Z 07008KT 9999 FEW030 20/16 Q1012 NOSIG

TAF TAF LEBL
Valid from the 27 at 18:00 until the 28 at 18:00 UTC


271700Z 2718/2818 09011KT 9999 FEW030 TX24/2812Z TN19/2806Z
PROB30
TEMPO 2722/2806 BKN014
BECMG 2721/2723 35006KT
BECMG 2810/2813 19008KT
No reported NOTAMs for that airfield.
1 SIGMET reported for the Barcelona FIR (LECB) :
 
Embedded thunderstorms
LECB SIGMET 7 VALID 272200/280100 LEVA
LECB BARCELONA FIR/UIR EMBD TS FCST WI N4047 W00041 - N4040 E00032 - N4218 E00204 - N4240 W00003 - N4047 W00041 TOP FL380 MOV NE NC=



MET'MAP, your aeronautical weather chart ! - Copyright ORBIFLY December 2007 - Disclaimer

ORBIFLY MET'MAP TEAM :

Programming & Development : Alexandra Zaïnal
Concept & Development : Baudouin d'Aumeries
Co-Development & Prog : Marc-Olivier Méhu
Technical & hardware support : Manuel Goepfert

Contact : metmap@orbifly.com




SOURCES & CREDITS :

   NOAA